Time;durP1;ratioP1;P1;durP2;ratioP2;P2;SDS_P1;SDS_P2;PMS_P1;PMS_P2;Temp;Humidity;BMP_temperature;BMP_pressure;BME280_temperature;BME280_humidity;BME280_pressure;Samples;Min_cycle;Max_cycle;Signal;HPM_P1;HPM_P2
2021/07/19 00:00:26;;;;;;;;;7.50;7.50;;;;;25.25;51.68;101661.25;6310229;22;45737;-71
2021/07/19 00:02:54;;;;;;;;;7.50;7.50;;;;;25.22;51.67;101663.38;6308384;22;45232;-71
2021/07/19 00:05:22;;;;;;;;;8.00;8.00;;;;;25.20;51.38;101662.63;6309454;22;46247;-71
2021/07/19 00:07:49;;;;;;;;;7.25;7.00;;;;;25.16;52.16;101656.53;6309400;22;45264;-71
2021/07/19 00:10:16;;;;;;;;;8.00;7.00;;;;;25.15;51.74;101668.44;6309762;22;45363;-71
2021/07/19 00:12:42;;;;;;;;;7.75;6.25;;;;;25.13;51.69;101660.38;6309119;22;45718;-71
2021/07/19 00:15:11;;;;;;;;;8.25;7.25;;;;;25.13;51.83;101662.25;6309661;22;45255;-71
2021/07/19 00:17:37;;;;;;;;;7.75;5.50;;;;;25.09;52.45;101663.47;6309369;22;45844;-71
2021/07/19 00:20:04;;;;;;;;;7.50;6.75;;;;;25.10;51.76;101666.06;6309866;22;45190;-71
2021/07/19 00:22:30;;;;;;;;;7.00;7.00;;;;;25.05;52.47;101657.38;6308714;22;45476;-71
2021/07/19 00:24:55;;;;;;;;;7.75;7.75;;;;;25.02;52.29;101657.63;6309592;22;46136;-71
2021/07/19 00:27:20;;;;;;;;;8.00;7.00;;;;;25.04;51.93;101669.31;6309974;22;45227;-71
2021/07/19 00:29:46;;;;;;;;;8.00;7.75;;;;;25.01;52.47;101661.34;6309462;22;45278;-71
2021/07/19 00:32:11;;;;;;;;;7.25;5.75;;;;;25.00;52.83;101666.94;6309309;22;45271;-71
2021/07/19 00:34:37;;;;;;;;;6.00;6.00;;;;;24.98;52.01;101660.72;6309445;22;46268;-71
2021/07/19 00:37:03;;;;;;;;;6.50;6.25;;;;;24.96;52.49;101666.31;6309709;22;45377;-71
2021/07/19 00:39:29;;;;;;;;;7.25;7.25;;;;;24.93;52.44;101666.56;6309293;22;45228;-71
2021/07/19 00:41:55;;;;;;;;;8.25;6.25;;;;;24.87;52.22;101662.41;6309797;22;45344;-71
2021/07/19 00:44:20;;;;;;;;;9.50;8.25;;;;;24.87;52.83;101669.75;6309024;22;45933;-71
2021/07/19 00:46:49;;;;;;;;;6.25;6.25;;;;;24.85;52.28;101669.88;6309673;22;45279;-71
2021/07/19 00:49:15;;;;;;;;;8.25;8.25;;;;;24.84;52.38;101668.16;6309446;22;45239;-71
2021/07/19 00:51:42;;;;;;;;;6.25;6.00;;;;;24.80;53.12;101655.72;6309611;22;45467;-71
2021/07/19 00:54:08;;;;;;;;;6.75;6.25;;;;;24.81;52.96;101668.38;6308920;22;45884;-71
2021/07/19 00:56:35;;;;;;;;;6.25;6.25;;;;;24.78;52.35;101676.81;6309577;22;45479;-71
2021/07/19 00:59:03;;;;;;;;;7.00;7.00;;;;;24.75;52.69;101661.53;6309214;22;45255;-71
2021/07/19 01:01:30;;;;;;;;;9.50;8.25;;;;;24.70;53.00;101660.16;6309456;22;45136;-71
2021/07/19 01:03:59;;;;;;;;;9.25;7.25;;;;;24.66;52.62;101665.00;6308861;22;45330;-71
2021/07/19 01:06:28;;;;;;;;;8.50;7.00;;;;;24.62;53.31;101659.88;6309157;22;45335;-71
2021/07/19 01:08:56;;;;;;;;;5.25;5.25;;;;;24.62;53.43;101666.19;6309229;22;45307;-71
2021/07/19 01:11:22;;;;;;;;;10.00;7.75;;;;;24.61;52.93;101659.03;6309231;22;45242;-71
2021/07/19 01:13:47;;;;;;;;;6.25;6.25;;;;;24.59;53.06;101652.78;6308336;22;52750;-71
2021/07/19 01:16:17;;;;;;;;;8.75;8.00;;;;;24.55;53.33;101654.88;6311057;22;45238;-70
2021/07/19 01:18:42;;;;;;;;;9.00;8.00;;;;;24.52;53.67;101649.63;6310975;22;45155;-71
2021/07/19 01:21:27;;;;;;;;;8.50;8.50;;;;;24.51;53.03;101652.50;6310687;22;45453;-71
2021/07/19 01:24:11;;;;;;;;;6.75;6.75;;;;;24.47;53.17;101651.84;6309871;22;47009;-71
2021/07/19 01:26:46;;;;;;;;;8.00;7.50;;;;;24.46;53.88;101654.69;6310810;22;45168;-71
2021/07/19 01:29:15;;;;;;;;;9.50;8.75;;;;;24.39;53.34;101652.44;6310186;22;45115;-71
2021/07/19 01:31:46;;;;;;;;;6.50;6.50;;;;;24.36;53.64;101649.94;6310937;22;45172;-71
2021/07/19 01:34:17;;;;;;;;;9.00;8.00;;;;;24.35;53.58;101650.94;6309866;22;46620;-71
2021/07/19 01:36:48;;;;;;;;;9.00;8.00;;;;;24.34;53.83;101654.66;6310754;22;45172;-71
2021/07/19 01:39:15;;;;;;;;;9.25;7.00;;;;;24.29;53.38;101645.97;6310093;22;45242;-71
2021/07/19 01:41:40;;;;;;;;;9.50;8.25;;;;;24.28;53.75;101644.22;6310689;22;45302;-71
2021/07/19 01:44:08;;;;;;;;;12.00;8.75;;;;;24.25;53.74;101646.31;6309894;22;45252;-71
2021/07/19 01:46:34;;;;;;;;;9.25;9.25;;;;;24.14;54.09;101639.81;6310481;22;45295;-71
2021/07/19 01:49:06;;;;;;;;;8.25;7.25;;;;;24.16;54.31;101653.34;6310482;22;45404;-71
2021/07/19 01:51:31;;;;;;;;;13.25;9.00;;;;;24.10;54.41;101641.00;6310526;22;45464;-71
2021/07/19 01:53:57;;;;;;;;;9.00;7.75;;;;;24.13;54.37;101645.38;6310038;22;45387;-71
2021/07/19 01:56:24;;;;;;;;;9.00;8.50;;;;;24.11;54.30;101653.69;6310527;22;45231;-71
2021/07/19 01:58:51;;;;;;;;;8.75;8.75;;;;;24.10;54.09;101643.75;6310216;22;45168;-71
2021/07/19 02:01:17;;;;;;;;;10.00;9.25;;;;;24.07;54.65;101643.09;6310715;22;45192;-71
2021/07/19 02:03:43;;;;;;;;;8.25;8.25;;;;;24.00;54.71;101642.69;6309846;22;45130;-71
2021/07/19 02:06:09;;;;;;;;;9.00;8.25;;;;;23.97;54.96;101645.66;6310756;22;45079;-71
2021/07/19 02:08:36;;;;;;;;;9.00;8.00;;;;;23.98;54.63;101645.53;6310695;22;45330;-71
2021/07/19 02:11:03;;;;;;;;;9.50;9.00;;;;;24.01;54.88;101642.59;6310338;22;45469;-71
2021/07/19 02:13:34;;;;;;;;;11.00;8.50;;;;;24.00;54.74;101639.97;6310022;22;45286;-71
2021/07/19 02:16:01;;;;;;;;;10.00;10.00;;;;;24.00;54.52;101637.25;6310515;22;45209;-71
2021/07/19 02:18:27;;;;;;;;;8.00;8.00;;;;;23.96;54.86;101636.59;6310501;22;45199;-71
2021/07/19 02:20:55;;;;;;;;;8.75;8.50;;;;;23.97;54.82;101642.91;6310378;22;45262;-71
2021/07/19 02:23:22;;;;;;;;;8.50;8.50;;;;;23.94;54.91;101641.31;6309612;22;45097;-71
2021/07/19 02:25:51;;;;;;;;;10.00;9.00;;;;;23.90;54.95;101630.75;6309844;22;45385;-71
2021/07/19 02:28:16;;;;;;;;;9.50;8.50;;;;;23.91;54.88;101640.69;6310006;22;45242;-70
2021/07/19 02:30:42;;;;;;;;;12.50;11.25;;;;;23.88;54.98;101636.31;6310297;22;45335;-71
2021/07/19 02:33:10;;;;;;;;;11.00;9.75;;;;;23.84;55.32;101646.56;6309910;22;45181;-71
2021/07/19 02:35:36;;;;;;;;;11.00;10.00;;;;;23.79;55.62;101647.84;6310392;22;45361;-71
2021/07/19 02:38:05;;;;;;;;;8.75;8.00;;;;;23.79;55.46;101647.84;6310559;22;45184;-71
2021/07/19 02:40:32;;;;;;;;;8.00;8.00;;;;;23.82;55.88;101648.56;6310020;22;45311;-70
2021/07/19 02:43:04;;;;;;;;;8.50;8.50;;;;;23.81;55.40;101651.34;6309515;22;45315;-71
2021/07/19 02:45:35;;;;;;;;;10.00;10.00;;;;;23.81;55.85;101648.63;6310686;22;45284;-71
2021/07/19 02:48:01;;;;;;;;;7.50;7.50;;;;;23.81;55.71;101644.03;6310335;22;45320;-70
2021/07/19 02:50:29;;;;;;;;;9.75;8.25;;;;;23.81;55.28;101648.63;6282319;22;45184;-71
2021/07/19 02:53:08;;;;;;;;;9.25;7.50;;;;;23.81;55.41;101654.94;6309684;22;46275;-70
2021/07/19 02:55:34;;;;;;;;;8.00;8.00;;;;;23.78;55.33;101655.16;6309636;22;45263;-70
2021/07/19 02:58:01;;;;;;;;;9.00;9.00;;;;;23.75;55.36;101652.66;6310186;22;45268;-71
2021/07/19 03:00:27;;;;;;;;;9.00;8.25;;;;;23.73;55.52;101653.78;6309746;22;45255;-71
2021/07/19 03:03:01;;;;;;;;;9.25;9.25;;;;;23.74;55.60;101645.50;6309653;22;46391;-70
2021/07/19 03:05:36;;;;;;;;;8.00;8.00;;;;;23.72;55.77;101652.88;6309797;22;45364;-71
2021/07/19 03:08:04;;;;;;;;;9.25;9.25;;;;;23.72;56.05;101641.13;6310650;22;45355;-71
2021/07/19 03:10:30;;;;;;;;;11.50;7.25;;;;;23.67;56.03;101636.91;6309599;22;45403;-70
2021/07/19 03:13:00;;;;;;;;;8.75;7.75;;;;;23.72;56.19;101641.13;6309506;22;45247;-70
2021/07/19 03:15:28;;;;;;;;;9.50;9.00;;;;;23.63;55.59;101631.78;6309708;22;45467;-71
2021/07/19 03:17:56;;;;;;;;;12.00;10.50;;;;;23.67;55.97;101638.72;6310370;22;45358;-70
2021/07/19 03:20:22;;;;;;;;;11.50;11.50;;;;;23.67;55.60;101642.34;6309673;22;45410;-70
2021/07/19 03:22:52;;;;;;;;;9.00;8.00;;;;;23.61;55.69;101647.38;6309734;22;45288;-71
2021/07/19 03:25:18;;;;;;;;;9.00;9.00;;;;;23.57;55.68;101644.00;6310007;22;45069;-70
2021/07/19 03:27:44;;;;;;;;;9.50;8.00;;;;;23.49;55.80;101635.53;6310042;22;45350;-70
2021/07/19 03:30:12;;;;;;;;;14.25;12.50;;;;;23.53;56.17;101642.47;6310145;22;45382;-71
2021/07/19 03:32:38;;;;;;;;;10.75;8.75;;;;;23.53;56.40;101644.34;6309170;22;46052;-70
2021/07/19 03:35:05;;;;;;;;;10.25;10.25;;;;;23.49;56.22;101639.09;6309737;22;45251;-71
2021/07/19 03:37:31;;;;;;;;;9.00;7.75;;;;;23.44;56.27;101635.84;6309547;22;45144;-70
2021/07/19 03:39:59;;;;;;;;;9.75;8.75;;;;;23.45;56.76;101634.84;6309656;22;45346;-70
2021/07/19 03:42:26;;;;;;;;;7.25;7.25;;;;;23.45;56.36;101631.25;6309463;22;45337;-70
2021/07/19 03:44:52;;;;;;;;;9.00;9.00;;;;;23.45;56.57;101634.84;6309580;22;45466;-70
2021/07/19 03:47:19;;;;;;;;;9.25;8.75;;;;;23.44;56.69;101626.81;6309969;22;45320;-70
2021/07/19 03:49:46;;;;;;;;;10.00;7.50;;;;;23.42;56.77;101628.75;6309904;22;45169;-70
2021/07/19 03:52:13;;;;;;;;;10.75;9.50;;;;;23.43;56.75;101631.38;6309570;22;46162;-70
2021/07/19 03:54:38;;;;;;;;;8.25;8.25;;;;;23.44;56.56;101627.69;6310139;22;45125;-70
2021/07/19 03:57:04;;;;;;;;;10.00;9.50;;;;;23.42;56.60;101628.75;6310254;22;45045;-71
2021/07/19 03:59:32;;;;;;;;;7.25;7.25;;;;;23.40;56.56;101628.88;6309774;22;45303;-70
2021/07/19 04:02:00;;;;;;;;;10.50;8.75;;;;;23.39;57.08;101634.41;6309101;22;46004;-70
2021/07/19 04:04:39;;;;;;;;;8.50;8.50;;;;;23.35;56.56;101636.50;6309976;22;45470;-70
2021/07/19 04:07:06;;;;;;;;;10.25;9.25;;;;;23.31;56.52;101637.72;6309360;22;45190;-71
2021/07/19 04:09:32;;;;;;;;;9.50;9.50;;;;;23.30;56.83;101644.13;6281950;22;45428;-70
2021/07/19 04:11:58;;;;;;;;;10.75;10.00;;;;;23.28;56.38;101640.66;6309614;22;45975;-71
2021/07/19 04:14:24;;;;;;;;;10.50;10.00;;;;;23.19;56.89;101628.59;6309173;22;45289;-70
2021/07/19 04:16:50;;;;;;;;;11.50;10.75;;;;;23.18;56.75;101620.53;6309696;22;45253;-70
2021/07/19 04:19:15;;;;;;;;;11.25;10.00;;;;;23.19;56.83;101639.47;6309684;22;45266;-70
2021/07/19 04:21:41;;;;;;;;;11.25;11.00;;;;;23.17;57.02;101625.09;6309394;22;46214;-70
2021/07/19 04:24:08;;;;;;;;;8.75;8.75;;;;;23.12;56.72;101639.03;6308840;22;45272;-71
2021/07/19 04:26:36;;;;;;;;;9.00;8.25;;;;;23.07;56.62;101629.44;6309104;22;45471;-70
2021/07/19 04:29:02;;;;;;;;;9.25;9.25;;;;;23.11;57.33;101625.53;6309287;22;45281;-70
2021/07/19 04:31:27;;;;;;;;;10.00;10.00;;;;;23.12;57.08;101632.69;6309467;22;46335;-70
2021/07/19 04:33:53;;;;;;;;;9.00;9.00;;;;;23.11;57.13;101633.72;6309424;22;45297;-70
2021/07/19 04:36:18;;;;;;;;;11.75;9.75;;;;;23.08;57.33;101625.75;6309480;22;45247;-70
2021/07/19 04:38:46;;;;;;;;;8.75;8.25;;;;;23.02;56.75;101617.97;6308874;22;45312;-70
2021/07/19 04:41:15;;;;;;;;;11.00;10.50;;;;;23.03;57.49;101623.31;6308683;22;46878;-70
2021/07/19 04:43:40;;;;;;;;;11.00;10.00;;;;;23.01;57.55;101625.28;6308797;22;45311;-70
2021/07/19 04:46:06;;;;;;;;;8.75;8.25;;;;;23.01;57.57;101625.28;6309576;22;45243;-71
2021/07/19 04:48:31;;;;;;;;;9.00;8.25;;;;;23.05;57.44;101628.66;6309380;22;45354;-70
2021/07/19 04:50:56;;;;;;;;;10.50;10.50;;;;;23.03;57.52;101623.31;6310394;22;45946;-70
2021/07/19 04:53:22;;;;;;;;;10.75;10.75;;;;;23.07;57.22;101633.06;6310582;22;45444;-70
2021/07/19 04:55:51;;;;;;;;;10.00;10.00;;;;;23.09;57.49;101632.94;6310884;22;45246;-70
2021/07/19 04:58:18;;;;;;;;;10.00;9.00;;;;;23.09;57.56;101627.50;6310597;22;45133;-70
2021/07/19 05:00:48;;;;;;;;;8.50;8.50;;;;;23.10;57.32;101637.41;6310446;22;45965;-70
2021/07/19 05:03:16;;;;;;;;;11.00;9.25;;;;;23.09;57.51;101632.94;6310411;22;45252;-70
2021/07/19 05:05:44;;;;;;;;;11.00;9.50;;;;;23.09;57.72;101635.69;6310333;22;45302;-70
2021/07/19 05:08:11;;;;;;;;;12.00;10.75;;;;;23.06;57.64;101636.75;6310475;22;45482;-71
2021/07/19 05:10:37;;;;;;;;;10.75;9.75;;;;;23.06;57.88;101642.19;6310670;22;45292;-70
2021/07/19 05:13:02;;;;;;;;;10.75;10.75;;;;;23.06;57.81;101646.75;6309432;22;45334;-70
2021/07/19 05:15:28;;;;;;;;;14.50;12.75;;;;;23.03;57.85;101650.53;6310738;22;45550;-70
2021/07/19 05:17:54;;;;;;;;;9.25;9.25;;;;;23.02;57.96;101646.09;6310374;22;45362;-70
2021/07/19 05:20:21;;;;;;;;;11.50;10.25;;;;;23.02;57.85;101637.94;6310039;22;45270;-70
2021/07/19 05:22:46;;;;;;;;;14.25;11.25;;;;;23.01;57.99;101644.34;6310293;22;45402;-70
2021/07/19 05:25:14;;;;;;;;;9.75;8.00;;;;;23.01;58.37;101647.06;6310860;22;45366;-70
2021/07/19 05:27:58;;;;;;;;;10.50;10.00;;;;;22.97;58.28;101636.50;6310686;22;45307;-70
2021/07/19 05:30:25;;;;;;;;;13.75;11.25;;;;;23.00;58.33;101647.16;6310052;22;45368;-70
2021/07/19 05:32:51;;;;;;;;;11.25;10.00;;;;;23.00;57.29;101649.91;6309798;22;45481;-70
2021/07/19 05:35:19;;;;;;;;;13.75;12.00;;;;;22.98;58.17;101633.66;6310817;22;45274;-70
2021/07/19 05:37:46;;;;;;;;;11.25;10.00;;;;;22.92;58.05;101632.25;6282586;22;45910;-71
2021/07/19 05:40:12;;;;;;;;;8.75;8.75;;;;;23.02;58.06;101648.81;6309815;22;45979;-71
2021/07/19 05:42:39;;;;;;;;;14.00;12.25;;;;;23.01;58.53;101649.78;6310101;22;45246;-70
2021/07/19 05:45:05;;;;;;;;;9.25;9.25;;;;;23.01;58.01;101649.78;6310901;22;45334;-71
2021/07/19 05:47:31;;;;;;;;;14.00;13.25;;;;;23.00;58.27;101652.63;6310266;22;45481;-70
2021/07/19 05:49:56;;;;;;;;;11.00;11.00;;;;;22.99;58.15;101643.59;6309777;22;46213;-70
2021/07/19 05:52:21;;;;;;;;;13.00;11.25;;;;;23.03;58.29;101652.41;6308750;22;45321;-70
2021/07/19 05:54:47;;;;;;;;;11.50;11.00;;;;;23.01;58.23;101652.50;6309487;22;45318;-70
2021/07/19 05:57:12;;;;;;;;;11.50;11.50;;;;;22.97;58.12;101645.56;6309924;22;45370;-69
2021/07/19 05:59:38;;;;;;;;;14.25;9.75;;;;;23.02;58.36;101648.81;6309886;22;45355;-70
2021/07/19 06:02:03;;;;;;;;;11.50;11.50;;;;;23.01;58.18;101643.47;6309045;22;45298;-70
2021/07/19 06:04:28;;;;;;;;;10.00;9.00;;;;;23.00;58.22;101639.88;6308927;22;45298;-71
2021/07/19 06:06:54;;;;;;;;;11.00;11.00;;;;;23.05;58.27;101651.28;6310102;22;48706;-71
2021/07/19 06:09:19;;;;;;;;;11.50;11.00;;;;;23.08;58.31;101642.09;6309751;22;47411;-71
2021/07/19 06:11:44;;;;;;;;;10.25;10.25;;;;;23.05;58.22;101632.25;6309932;22;45168;-71
2021/07/19 06:14:10;;;;;;;;;13.25;12.75;;;;;23.14;58.19;101641.66;6308463;22;45261;-71
2021/07/19 06:16:35;;;;;;;;;12.25;11.00;;;;;23.16;58.22;101636.09;6278633;22;45664;-71
2021/07/19 06:19:02;;;;;;;;;9.75;8.25;;;;;23.15;57.79;101645.25;6308844;22;46103;-71
2021/07/19 06:21:27;;;;;;;;;14.50;11.75;;;;;23.19;58.14;101653.09;6309460;22;45216;-70
2021/07/19 06:23:53;;;;;;;;;13.75;13.00;;;;;23.19;58.41;101647.66;6309852;22;45133;-71
2021/07/19 06:26:19;;;;;;;;;11.75;10.75;;;;;23.19;58.27;101647.66;6310295;22;45250;-71
2021/07/19 06:28:44;;;;;;;;;10.25;10.25;;;;;23.18;58.06;101648.63;6309424;22;46276;-70
2021/07/19 06:31:11;;;;;;;;;12.75;11.50;;;;;23.18;58.22;101645.91;6309791;22;45326;-70
2021/07/19 06:33:36;;;;;;;;;11.50;11.50;;;;;23.22;58.14;101651.97;6308666;22;45287;-71
2021/07/19 06:36:02;;;;;;;;;14.50;14.50;;;;;23.21;58.23;101645.69;6310113;22;45345;-71
2021/07/19 06:38:27;;;;;;;;;13.25;11.50;;;;;23.24;58.46;101648.19;6308964;22;45643;-73
2021/07/19 06:40:53;;;;;;;;;13.25;12.00;;;;;23.25;57.95;101649.03;6307057;22;45288;-71
2021/07/19 06:43:18;;;;;;;;;11.75;11.75;;;;;23.22;57.89;101643.81;6308805;22;45334;-71
2021/07/19 06:45:46;;;;;;;;;11.50;11.50;;;;;23.21;57.93;101633.94;6309231;22;45285;-71
2021/07/19 06:48:12;;;;;;;;;13.50;13.50;;;;;23.25;58.16;101632.72;6309142;22;47324;-74
2021/07/19 06:50:37;;;;;;;;;12.50;12.50;;;;;23.28;58.06;101640.66;6281398;22;45224;-74
2021/07/19 06:53:03;;;;;;;;;13.75;13.00;;;;;23.19;58.21;101616.78;6306453;22;45280;-70
2021/07/19 06:55:28;;;;;;;;;14.00;13.75;;;;;23.28;57.99;101644.25;6309829;22;45195;-71
2021/07/19 06:57:53;;;;;;;;;12.25;10.75;;;;;23.28;57.77;101627.91;6291837;22;45355;-68
2021/07/19 07:00:19;;;;;;;;;13.00;13.00;;;;;23.29;58.28;101637.84;6301755;22;47154;-68
2021/07/19 07:02:45;;;;;;;;;17.00;14.75;;;;;23.31;57.95;101644.03;6277590;22;45398;-68
2021/07/19 07:05:10;;;;;;;;;14.00;12.25;;;;;23.35;58.15;101638.38;6308495;22;45426;-68
2021/07/19 07:07:36;;;;;;;;;15.50;13.50;;;;;23.35;57.87;101631.06;6306955;22;45235;-67
2021/07/19 07:10:03;;;;;;;;;16.50;15.25;;;;;23.38;57.91;101636.28;6308140;22;45313;-68
2021/07/19 07:12:28;;;;;;;;;14.25;14.25;;;;;23.40;57.98;101628.88;6306986;22;45713;-67
2021/07/19 07:14:53;;;;;;;;;14.00;14.00;;;;;23.40;57.99;101628.00;6306791;22;45484;-67
2021/07/19 07:17:19;;;;;;;;;13.00;12.00;;;;;23.45;57.26;101639.44;6307811;22;45933;-68
2021/07/19 07:19:44;;;;;;;;;15.50;13.00;;;;;23.47;57.18;101642.91;6307408;22;45322;-67
2021/07/19 07:22:10;;;;;;;;;7.75;7.75;;;;;23.46;57.27;101631.16;6306204;22;45279;-67
2021/07/19 07:24:40;;;;;;;;;13.25;11.50;;;;;23.49;57.21;101641.84;6307601;22;45474;-67
2021/07/19 07:27:06;;;;;;;;;14.00;12.50;;;;;23.51;57.09;101633.56;6307793;22;46270;-67
2021/07/19 07:29:32;;;;;;;;;12.25;10.75;;;;;23.52;57.02;101628.97;6308216;22;45317;-68
2021/07/19 07:31:58;;;;;;;;;12.25;11.50;;;;;23.52;56.90;101621.66;6307587;22;45361;-67
2021/07/19 07:34:23;;;;;;;;;13.25;13.25;;;;;23.60;56.44;101632.00;6281091;22;45345;-71
2021/07/19 07:36:48;;;;;;;;;11.50;11.00;;;;;23.60;56.15;101632.84;6308958;22;45361;-71
2021/07/19 07:39:14;;;;;;;;;8.75;8.75;;;;;23.64;56.53;101628.06;6307982;22;45346;-71
2021/07/19 07:41:39;;;;;;;;;13.25;11.50;;;;;23.63;56.34;101616.28;6309011;22;45130;-71
2021/07/19 07:44:04;;;;;;;;;8.25;7.75;;;;;23.68;56.39;101625.00;6307632;22;45475;-74
2021/07/19 07:46:30;;;;;;;;;10.25;10.00;;;;;23.80;55.40;101627.78;6281081;22;47167;-70
2021/07/19 07:48:55;;;;;;;;;8.75;8.50;;;;;23.82;55.49;101629.47;6307856;22;47143;-70
2021/07/19 07:51:21;;;;;;;;;8.75;8.75;;;;;23.88;54.78;101630.84;6280179;22;45304;-71
2021/07/19 07:53:46;;;;;;;;;10.75;10.25;;;;;23.92;54.60;101629.63;6308263;22;45186;-70
2021/07/19 07:56:13;;;;;;;;;10.25;9.25;;;;;23.99;54.29;101627.31;6308769;22;45299;-71
2021/07/19 07:58:39;;;;;;;;;9.50;9.25;;;;;24.09;54.42;101633.84;6307935;22;45626;-70
2021/07/19 08:01:05;;;;;;;;;11.25;9.75;;;;;24.09;54.07;101617.47;6309020;22;45379;-70
2021/07/19 08:03:30;;;;;;;;;7.25;7.25;;;;;24.19;53.74;101623.06;6279834;22;45610;-70
2021/07/19 08:05:56;;;;;;;;;9.25;8.50;;;;;24.29;53.66;101626.88;6280990;22;45964;-71
2021/07/19 08:08:21;;;;;;;;;8.00;8.00;;;;;24.29;53.42;101613.22;6308832;22;45278;-71
2021/07/19 08:10:46;;;;;;;;;9.50;7.50;;;;;24.47;53.12;101626.41;6308965;22;45642;-71
2021/07/19 08:13:13;;;;;;;;;8.50;8.50;;;;;24.53;53.28;101625.97;6307532;22;45248;-71
2021/07/19 08:15:39;;;;;;;;;8.00;7.75;;;;;24.59;52.87;101622.75;6309039;22;45338;-71
2021/07/19 08:18:04;;;;;;;;;11.00;8.00;;;;;24.64;52.27;101620.56;6308717;22;45270;-71
2021/07/19 08:20:30;;;;;;;;;9.50;7.00;;;;;24.70;51.26;101619.22;6308234;22;45331;-69
2021/07/19 08:22:56;;;;;;;;;6.00;6.00;;;;;24.71;51.80;101610.91;6308507;22;45491;-71
2021/07/19 08:25:21;;;;;;;;;7.00;7.00;;;;;24.80;51.75;101605.72;6307554;22;46024;-71
2021/07/19 08:27:48;;;;;;;;;8.00;7.50;;;;;24.86;50.83;101610.66;6279878;22;45318;-73
2021/07/19 08:30:16;;;;;;;;;9.50;8.00;;;;;24.89;51.07;101604.97;6305304;22;45717;-71
2021/07/19 08:32:42;;;;;;;;;6.00;6.00;;;;;24.97;51.55;101610.69;6306006;22;45311;-70
2021/07/19 08:35:10;;;;;;;;;9.50;7.50;;;;;25.03;50.85;101612.94;6306900;22;45351;-74
2021/07/19 08:37:47;;;;;;;;;8.50;8.25;;;;;25.04;50.67;101603.75;6280342;22;45307;-74
2021/07/19 08:40:20;;;;;;;;;6.75;6.75;;;;;25.15;50.83;101613.81;6291025;22;45389;-74
2021/07/19 08:42:46;;;;;;;;;4.75;4.75;;;;;25.14;50.29;101607.50;6305735;22;45637;-73
2021/07/19 08:45:12;;;;;;;;;8.00;7.25;;;;;25.26;49.48;101619.31;6307917;22;45523;-71
2021/07/19 08:47:48;;;;;;;;;6.50;6.00;;;;;25.23;50.06;101594.94;6307640;22;45237;-71
2021/07/19 08:50:15;;;;;;;;;7.50;7.50;;;;;25.31;50.05;101619.81;6304395;22;45365;-70
2021/07/19 08:52:42;;;;;;;;;8.25;6.25;;;;;25.31;49.59;101606.16;6308318;22;45408;-70
2021/07/19 08:55:10;;;;;;;;;9.00;8.00;;;;;25.27;49.38;101601.91;6307873;22;45995;-70
2021/07/19 08:57:37;;;;;;;;;9.25;7.00;;;;;25.31;49.69;101600.69;6307365;22;45790;-70
2021/07/19 09:00:06;;;;;;;;;8.75;7.00;;;;;25.37;49.56;101598.44;6304818;22;45386;-69
2021/07/19 09:02:32;;;;;;;;;14.75;10.50;;;;;25.45;49.95;101601.41;6305448;22;45463;-70
2021/07/19 09:04:57;;;;;;;;;8.75;7.75;;;;;25.44;49.38;101591.47;6305855;22;46119;-70
2021/07/19 09:07:24;;;;;;;;;8.50;7.00;;;;;25.51;49.13;101596.31;6307416;22;45542;-70
2021/07/19 09:09:51;;;;;;;;;8.25;8.00;;;;;25.60;49.12;101610.22;6306764;22;45338;-70
2021/07/19 09:36:09;;;;;;;;;;;;;;;;;;;;;
2021/07/19 09:38:48;;;;;;;;;;;;;;;;;;;;;
2021/07/19 09:41:36;;;;;;;;;;;;;;;;;;;;;
2021/07/19 09:44:22;;;;;;;;;4.75;4.75;;;;;26.22;47.63;101587.66;6184352;23;73354;-68
2021/07/19 09:47:41;;;;;;;;;;;;;;;;;;;;;
2021/07/19 10:20:59;;;;;;;;;13.00;8.75;;;;;26.78;45.33;101567.34;6120778;23;45500;-69
2021/07/19 10:23:39;;;;;;;;;;;;;;;;;;;;;
2021/07/19 10:26:06;;;;;;;;;8.25;7.00;;;;;26.94;45.48;101566.84;6149087;23;75704;-68
2021/07/19 10:28:34;;;;;;;;;7.50;7.50;;;;;26.98;45.51;101579.28;6149258;23;45744;-68
2021/07/19 10:31:12;;;;;;;;;7.00;6.75;;;;;26.90;45.58;101537.16;6166376;22;45466;-68
2021/07/19 10:37:45;;;;;;;;;8.50;8.50;;;;;27.26;45.26;101571.31;6121651;23;45428;-71
2021/07/19 12:25:23;;;;;;;;;7.50;7.25;;;;;28.11;42.38;101461.19;6212733;22;45533;-72
2021/07/19 12:28:52;;;;;;;;;8.25;6.75;;;;;28.51;42.41;101495.78;6092350;23;45537;-72
2021/07/19 12:40:05;;;;;;;;;;;;;;;;;;;;;
2021/07/19 12:42:51;;;;;;;;;10.00;9.00;;;;;28.55;41.26;101486.22;5977982;23;45553;-71
2021/07/19 12:53:12;;;;;;;;;;;;;;;;;;;;;
2021/07/19 12:56:15;;;;;;;;;5.25;4.50;;;;;28.64;40.81;101486.22;5817565;24;70534;-71
2021/07/19 12:58:58;;;;;;;;;8.25;8.00;;;;;28.69;41.32;101488.50;5863406;23;45458;-69
2021/07/19 13:01:37;;;;;;;;;12.00;8.50;;;;;28.71;41.92;101488.38;6105327;23;46513;-69
2021/07/19 13:04:11;;;;;;;;;8.00;7.75;;;;;28.58;41.27;101474.97;6184603;23;45384;-69
2021/07/19 13:06:38;;;;;;;;;10.75;10.75;;;;;28.57;40.97;101470.50;6185421;23;45454;-69
2021/07/19 13:09:08;;;;;;;;;10.00;8.50;;;;;28.69;41.29;101473.94;6182577;23;45514;-69
2021/07/19 13:11:39;;;;;;;;;12.00;12.00;;;;;28.59;40.97;101446.50;6186447;23;46376;-69
2021/07/19 13:14:15;;;;;;;;;6.25;6.25;;;;;28.58;41.35;101445.59;6178782;23;45202;-69
2021/07/19 13:17:00;;;;;;;;;11.75;9.25;;;;;28.82;41.25;101477.19;6186369;23;45328;-69
2021/07/19 13:19:48;;;;;;;;;7.25;7.25;;;;;28.61;40.92;101441.72;6186393;23;45173;-69
2021/07/19 13:22:14;;;;;;;;;10.00;8.75;;;;;28.85;41.07;101473.25;6186550;23;46543;-70
2021/07/19 13:24:45;;;;;;;;;10.25;7.50;;;;;28.67;40.78;101445.72;6182954;23;45329;-69
2021/07/19 13:27:15;;;;;;;;;7.00;7.00;;;;;28.75;41.43;101460.44;6186767;23;45179;-69
2021/07/19 13:29:43;;;;;;;;;8.50;8.00;;;;;28.73;40.77;101437.75;6186884;23;45280;-69
2021/07/19 13:32:12;;;;;;;;;9.75;9.00;;;;;28.72;40.68;101440.63;6186366;23;45397;-69
2021/07/19 13:34:38;;;;;;;;;7.50;6.75;;;;;28.74;40.96;101433.13;6187120;23;45374;-69
2021/07/19 13:37:06;;;;;;;;;10.75;9.00;;;;;28.75;40.79;101452.22;6187191;23;45500;-69
2021/07/19 13:39:32;;;;;;;;;9.75;8.25;;;;;28.96;39.59;101475.81;6167494;23;45613;-69
2021/07/19 13:42:04;;;;;;;;;5.75;5.75;;;;;28.74;40.13;101430.38;6153761;23;47637;-70
2021/07/19 13:44:32;;;;;;;;;8.25;8.25;;;;;28.98;40.25;101465.53;6157186;23;45443;-69
2021/07/19 13:46:58;;;;;;;;;7.00;7.00;;;;;28.99;40.58;101475.53;6159291;23;45329;-70
2021/07/19 13:49:24;;;;;;;;;6.00;5.50;;;;;28.91;40.48;101450.69;6186237;23;45306;-69
2021/07/19 13:51:50;;;;;;;;;8.75;8.25;;;;;28.95;40.77;101463.97;6186033;23;45299;-69
2021/07/19 13:54:15;;;;;;;;;8.00;8.00;;;;;28.99;40.89;101461.78;6185951;23;45296;-69
2021/07/19 13:56:40;;;;;;;;;7.75;7.75;;;;;28.83;39.80;101432.19;6186874;23;45253;-69
2021/07/19 13:59:06;;;;;;;;;9.25;8.25;;;;;28.86;40.35;101442.88;6185959;23;45474;-70
2021/07/19 14:01:35;;;;;;;;;7.50;7.50;;;;;28.87;40.47;101433.66;6187187;23;46106;-69
2021/07/19 14:04:00;;;;;;;;;11.00;9.25;;;;;28.81;41.13;101415.00;6186382;23;45323;-69
2021/07/19 14:06:26;;;;;;;;;7.50;7.00;;;;;28.88;40.49;101423.50;6186903;23;45389;-69
2021/07/19 14:08:51;;;;;;;;;7.50;7.50;;;;;29.07;40.50;101450.00;6186065;23;45375;-69
2021/07/19 14:11:17;;;;;;;;;7.00;7.00;;;;;28.83;40.58;101408.38;6186762;23;46061;-69
2021/07/19 14:13:42;;;;;;;;;8.25;7.25;;;;;28.91;41.12;101428.69;6186144;23;45330;-69
2021/07/19 14:16:07;;;;;;;;;9.75;8.75;;;;;29.08;41.12;101446.25;6187223;23;45404;-69
2021/07/19 14:18:33;;;;;;;;;7.00;6.00;;;;;29.13;40.76;101461.25;6186463;23;45613;-69
2021/07/19 14:20:58;;;;;;;;;8.75;7.75;;;;;29.14;40.55;101457.50;6186767;23;45379;-69
2021/07/19 14:23:24;;;;;;;;;10.00;8.25;;;;;28.93;40.47;101411.03;6183497;23;45330;-69
2021/07/19 14:25:49;;;;;;;;;6.50;6.00;;;;;28.90;40.61;101396.72;6187059;23;45229;-69
2021/07/19 14:28:15;;;;;;;;;7.50;7.50;;;;;29.11;40.92;101440.44;6186187;23;45073;-69
2021/07/19 14:30:40;;;;;;;;;5.75;5.25;;;;;29.07;40.31;101422.50;6186346;23;45455;-69
2021/07/19 14:33:06;;;;;;;;;7.25;7.00;;;;;29.15;40.73;101436.34;6186253;23;45170;-69